Time;durP1;ratioP1;P1;durP2;ratioP2;P2;SDS_P1;SDS_P2;PMS_P1;PMS_P2;Temp;Humidity;BMP_temperature;BMP_pressure;BME280_temperature;BME280_humidity;BME280_pressure;Samples;Min_cycle;Max_cycle;Signal;HPM_P1;HPM_P2
2021/11/12 00:13:09;;;;;;;40.08;25.13;;;9.30;99.90;;;;;;5094745;28;20386;-75
2021/11/12 00:15:41;;;;;;;43.63;25.95;;;9.30;99.90;;;;;;5095558;28;20048;-74
2021/11/12 00:18:07;;;;;;;47.42;26.55;;;9.40;99.90;;;;;;5094897;28;20089;-75
2021/11/12 00:20:33;;;;;;;46.63;26.65;;;9.30;80.20;;;;;;5095699;28;20035;-75
2021/11/12 00:22:59;;;;;;;46.88;25.73;;;9.30;7.60;;;;;;5094681;28;20043;-75
2021/11/12 00:25:25;;;;;;;48.05;25.50;;;9.30;15.80;;;;;;5094736;28;20085;-75
2021/11/12 00:27:51;;;;;;;43.13;26.02;;;9.30;77.10;;;;;;5095029;28;20040;-75
2021/11/12 00:30:35;;;;;;;38.30;23.60;;;9.20;1.00;;;;;;5095081;28;20102;-75
2021/11/12 00:33:25;;;;;;;42.03;25.30;;;9.30;99.90;;;;;;5094519;28;20040;-75
2021/11/12 00:38:29;;;;;;;37.00;22.70;;;9.30;99.90;;;;;;5094633;28;20044;-75
2021/11/12 00:41:10;;;;;;;46.10;24.10;;;9.20;99.90;;;;;;5094970;28;20502;-75
2021/11/12 00:43:41;;;;;;;47.97;25.05;;;9.20;92.30;;;;;;5094794;28;20044;-75
2021/11/12 00:46:11;;;;;;;38.10;22.48;;;9.10;51.20;;;;;;5095261;28;20123;-75
2021/11/12 00:48:44;;;;;;;37.70;22.52;;;9.10;46.80;;;;;;5094296;28;20553;-75
2021/11/12 00:54:05;;;;;;;37.45;24.05;;;9.20;99.90;;;;;;5094517;28;20070;-75
2021/11/12 00:56:28;;;;;;;43.28;22.88;;;9.30;99.90;;;;;;5093229;28;20040;-75
2021/11/12 00:58:57;;;;;;;39.50;23.35;;;9.30;68.00;;;;;;5094620;28;20048;-75
2021/11/12 01:01:25;;;;;;;37.72;21.50;;;9.20;17.40;;;;;;5094243;28;20042;-75
2021/11/12 01:03:52;;;;;;;39.20;21.70;;;9.20;8.50;;;;;;5094492;28;20040;-74
2021/11/12 01:06:18;;;;;;;31.35;18.70;;;9.20;1.00;;;;;;5094924;28;20067;-74
2021/11/12 01:08:45;;;;;;;38.83;21.50;;;9.20;58.00;;;;;;5094457;28;20052;-75
2021/11/12 01:11:13;;;;;;;26.98;18.77;;;9.20;1.00;;;;;;5094344;28;20499;-75
2021/11/12 01:13:39;;;;;;;28.67;17.10;;;9.30;14.10;;;;;;5094191;28;20043;-74
2021/11/12 01:16:05;;;;;;;24.33;15.55;;;9.30;19.90;;;;;;5094017;28;20122;-75
2021/11/12 01:18:34;;;;;;;37.30;18.73;;;9.30;1.00;;;;;;5094224;28;20048;-75
2021/11/12 01:21:00;;;;;;;26.58;18.75;;;9.30;1.00;;;;;;5094268;28;20123;-74
2021/11/12 01:23:26;;;;;;;29.38;16.75;;;9.40;1.00;;;;;;5094378;28;20451;-75
2021/11/12 01:25:52;;;;;;;29.80;17.52;;;9.30;1.00;;;;;;5094200;28;20036;-75
2021/11/12 01:28:19;;;;;;;25.90;15.18;;;9.40;1.00;;;;;;5093854;28;20043;-75
2021/11/12 01:30:45;;;;;;;29.08;17.63;;;9.40;1.00;;;;;;5094729;28;20061;-74
2021/11/12 01:33:11;;;;;;;24.80;17.20;;;9.40;99.90;;;;;;5093672;28;20040;-75
2021/11/12 01:35:37;;;;;;;25.20;16.70;;;9.40;99.90;;;;;;5094168;28;20120;-75
2021/11/12 01:38:04;;;;;;;46.92;28.10;;;9.40;99.90;;;;;;5097867;28;20604;-74
2021/11/12 01:40:30;;;;;;;46.55;24.83;;;9.50;99.90;;;;;;5097521;28;20061;-75
2021/11/12 01:43:12;;;;;;;45.55;22.52;;;9.40;99.90;;;;;;5097430;28;20111;-74
2021/11/12 01:48:39;;;;;;;35.53;20.50;;;9.50;99.90;;;;;;5097472;28;20501;-75
2021/11/12 01:53:44;;;;;;;30.75;18.67;;;9.50;99.90;;;;;;5097848;28;20036;-74
2021/11/12 02:01:44;;;;;;;25.63;17.80;;;9.60;99.90;;;;;;5098109;28;20036;-75
2021/11/12 02:04:12;;;;;;;29.38;19.35;;;9.70;99.90;;;;;;5097460;28;20048;-75
2021/11/12 02:06:40;;;;;;;31.40;20.13;;;9.70;99.90;;;;;;5097659;28;20036;-75
2021/11/12 02:09:18;;;;;;;31.45;18.55;;;9.70;99.90;;;;;;5097431;28;20063;-75
2021/11/12 02:11:48;;;;;;;26.20;16.95;;;9.70;99.90;;;;;;5098755;28;20047;-75
2021/11/12 02:14:15;;;;;;;25.70;16.45;;;9.70;99.90;;;;;;5097480;28;20493;-75
2021/11/12 02:16:46;;;;;;;22.20;16.50;;;9.80;99.90;;;;;;5097214;28;20088;-75
2021/11/12 02:19:13;;;;;;;26.90;15.23;;;9.80;99.90;;;;;;5097438;28;20044;-75
2021/11/12 02:24:11;;;;;;;21.02;13.05;;;9.80;99.90;;;;;;5097276;28;20417;-74
2021/11/12 02:26:41;;;;;;;23.92;13.15;;;9.80;99.90;;;;;;5097282;28;20169;-75
2021/11/12 02:29:09;;;;;;;19.35;12.63;;;9.80;99.90;;;;;;5097087;28;20043;-75
2021/11/12 02:31:36;;;;;;;19.85;12.05;;;9.90;99.90;;;;;;5096921;28;20028;-75
2021/11/12 02:34:07;;;;;;;22.20;12.82;;;9.90;99.90;;;;;;5097083;28;20051;-75
2021/11/12 02:36:34;;;;;;;16.52;12.25;;;9.90;99.90;;;;;;5097294;28;20043;-75
2021/11/12 02:39:02;;;;;;;19.95;12.02;;;9.90;99.90;;;;;;5097153;28;20113;-75
2021/11/12 02:41:28;;;;;;;23.88;11.82;;;10.00;99.90;;;;;;5097267;28;20039;-74
2021/11/12 02:43:54;;;;;;;21.25;11.38;;;9.90;99.90;;;;;;5096906;28;20040;-75
2021/11/12 02:46:23;;;;;;;19.13;12.07;;;10.00;99.90;;;;;;5096864;28;20532;-75
2021/11/12 02:48:50;;;;;;;18.42;10.02;;;9.90;99.90;;;;;;5097052;28;20060;-75
2021/11/12 02:51:22;;;;;;;18.67;11.65;;;9.90;99.90;;;;;;5096976;28;20119;-75
2021/11/12 02:53:49;;;;;;;16.50;11.07;;;9.90;99.90;;;;;;5096358;28;20050;-75
2021/11/12 02:56:25;;;;;;;19.00;11.30;;;9.90;99.90;;;;;;5096654;28;20062;-75
2021/11/12 02:58:53;;;;;;;18.77;12.18;;;9.90;99.90;;;;;;5096685;28;20040;-75
2021/11/12 03:01:21;;;;;;;18.65;12.60;;;9.90;99.90;;;;;;5096114;28;20149;-74
2021/11/12 03:03:46;;;;;;;18.52;11.70;;;9.90;99.90;;;;;;5096209;28;20047;-75
2021/11/12 03:06:12;;;;;;;17.65;12.20;;;9.90;99.90;;;;;;5096367;28;20028;-74
2021/11/12 03:08:38;;;;;;;23.17;12.43;;;9.90;99.90;;;;;;5096421;28;20047;-75
2021/11/12 03:11:06;;;;;;;21.48;11.48;;;9.90;99.90;;;;;;5096086;28;20036;-74
2021/11/12 03:13:31;;;;;;;19.20;11.15;;;9.90;99.90;;;;;;5096432;28;20051;-74
2021/11/12 03:16:00;;;;;;;17.98;11.05;;;9.90;99.90;;;;;;5096308;28;20382;-75
2021/11/12 03:18:28;;;;;;;18.05;9.93;;;10.00;99.90;;;;;;5096026;28;20054;-74
2021/11/12 03:20:55;;;;;;;19.95;11.20;;;10.00;99.90;;;;;;5096041;28;20138;-74
2021/11/12 03:23:25;;;;;;;17.13;9.93;;;10.00;99.90;;;;;;5096274;28;20040;-75
2021/11/12 03:28:40;;;;;;;14.32;10.10;;;10.00;99.90;;;;;;5095773;28;20035;-75
2021/11/12 04:22:27;;;;;;;13.45;7.53;;;10.10;99.90;;;;;;5094884;28;20043;-75
2021/11/12 04:31:00;;;;;;;14.52;9.05;;;10.20;99.90;;;;;;5095240;28;20052;-74
2021/11/12 05:50:18;;;;;;;11.05;7.28;;;9.70;99.90;;;;;;5057507;28;20135;-75
2021/11/12 05:55:28;;;;;;;10.70;7.00;;;9.70;99.90;;;;;;5054734;28;20048;-75
2021/11/12 05:57:54;;;;;;;12.13;7.38;;;9.70;99.90;;;;;;5055374;28;20029;-75
2021/11/12 06:00:20;;;;;;;10.45;7.53;;;9.70;99.90;;;;;;5054969;28;20542;-75
2021/11/12 06:02:46;;;;;;;10.52;6.43;;;9.80;99.90;;;;;;5054833;28;20041;-75
2021/11/12 06:05:15;;;;;;;9.73;6.38;;;9.80;99.90;;;;;;5055155;28;20044;-75
2021/11/12 06:07:41;;;;;;;10.13;6.35;;;9.80;99.90;;;;;;5056009;28;20036;-75
2021/11/12 06:10:07;;;;;;;8.77;7.30;;;9.90;99.90;;;;;;5057058;28;20053;-75
2021/11/12 06:12:33;;;;;;;8.27;6.18;;;9.80;99.90;;;;;;5057288;28;20121;-75
2021/11/12 06:14:59;;;;;;;9.23;6.13;;;9.80;99.90;;;;;;5056678;28;20048;-75
2021/11/12 06:17:25;;;;;;;8.75;6.10;;;9.70;99.90;;;;;;5056451;28;20037;-75
2021/11/12 06:19:51;;;;;;;9.10;6.55;;;9.70;99.90;;;;;;5057350;28;20057;-74
2021/11/12 06:22:17;;;;;;;9.25;6.60;;;9.70;99.90;;;;;;5055939;28;20537;-75
2021/11/12 06:24:43;;;;;;;9.88;6.90;;;9.70;99.90;;;;;;5056745;28;20044;-75
2021/11/12 06:27:09;;;;;;;8.05;5.93;;;9.70;99.90;;;;;;5056423;28;20032;-74
2021/11/12 06:29:35;;;;;;;8.75;6.20;;;9.70;99.90;;;;;;5056701;28;20079;-74
2021/11/12 06:32:01;;;;;;;8.35;5.78;;;9.80;99.90;;;;;;5056447;28;20044;-75
2021/11/12 06:34:29;;;;;;;9.77;5.88;;;9.80;99.90;;;;;;5056557;28;20040;-75
2021/11/12 06:36:55;;;;;;;7.78;6.15;;;9.80;99.90;;;;;;5056531;28;20120;-75
2021/11/12 06:39:21;;;;;;;8.15;5.97;;;9.70;99.90;;;;;;5056465;28;20076;-75
2021/11/12 06:49:33;;;;;;;10.75;6.20;;;9.90;99.90;;;;;;5073254;28;20056;-75
2021/11/12 06:52:00;;;;;;;8.93;7.13;;;9.90;99.90;;;;;;5076526;28;20040;-75
2021/11/12 06:54:27;;;;;;;8.98;6.00;;;9.90;99.90;;;;;;5074792;28;20040;-75
2021/11/12 06:56:53;;;;;;;9.07;5.68;;;9.90;99.90;;;;;;5075690;28;20032;-75
2021/11/12 06:59:19;;;;;;;9.57;5.38;;;9.90;99.90;;;;;;5075886;28;20048;-75
2021/11/12 07:01:47;;;;;;;13.98;7.88;;;9.90;99.90;;;;;;5076197;28;20028;-75
2021/11/12 07:04:14;;;;;;;8.32;5.85;;;9.90;99.90;;;;;;5075878;28;20040;-75
2021/11/12 07:06:39;;;;;;;8.82;5.72;;;9.90;99.90;;;;;;5075854;28;20029;-75
2021/11/12 07:09:07;;;;;;;8.32;6.15;;;10.00;99.90;;;;;;5076314;28;20040;-75
2021/11/12 07:11:34;;;;;;;12.65;6.00;;;10.00;99.90;;;;;;5075786;28;20047;-75
2021/11/12 07:14:01;;;;;;;7.43;5.65;;;9.80;99.90;;;;;;5074914;28;20044;-80
2021/11/12 07:16:27;;;;;;;8.00;5.53;;;9.80;99.90;;;;;;5073647;28;20060;-75
2021/11/12 07:18:55;;;;;;;6.65;4.95;;;9.80;99.90;;;;;;5074009;28;20080;-75
2021/11/12 07:21:25;;;;;;;7.75;5.43;;;9.80;99.90;;;;;;5073938;28;20035;-77
2021/11/12 07:23:54;;;;;;;6.95;5.30;;;9.80;99.90;;;;;;5073921;28;20079;-77
2021/11/12 07:26:20;;;;;;;7.50;5.10;;;9.80;99.90;;;;;;5073502;28;20097;-77
2021/11/12 07:28:48;;;;;;;6.70;5.20;;;9.90;99.90;;;;;;5072770;28;20080;-75
2021/11/12 07:31:17;;;;;;;5.72;4.03;;;9.90;99.90;;;;;;5073319;28;20045;-76
2021/11/12 07:33:45;;;;;;;6.25;4.32;;;9.90;99.90;;;;;;5072368;28;20506;-75
2021/11/12 07:36:21;;;;;;;3.55;3.25;;;10.00;99.90;;;;;;5073630;28;20120;-76
2021/11/12 07:47:00;;;;;;;4.93;3.20;;;10.20;99.90;;;;;;4991363;28;20037;-76
2021/11/12 07:49:27;;;;;;;8.65;4.30;;;10.20;99.90;;;;;;5026454;28;20057;-75
2021/11/12 07:51:52;;;;;;;4.68;3.28;;;10.20;99.90;;;;;;5054293;28;20045;-75
2021/11/12 07:54:19;;;;;;;4.45;3.08;;;10.30;99.90;;;;;;5054263;28;20095;-75
2021/11/12 07:56:45;;;;;;;3.35;2.97;;;10.40;99.90;;;;;;5054944;28;20499;-75
2021/11/12 07:59:11;;;;;;;3.53;2.83;;;10.50;99.90;;;;;;5054570;28;20132;-75
2021/11/12 08:01:37;;;;;;;4.93;2.80;;;10.50;99.90;;;;;;5054791;28;20125;-75
2021/11/12 08:04:05;;;;;;;4.70;2.72;;;10.60;99.90;;;;;;5054622;28;20041;-76
2021/11/12 08:06:32;;;;;;;4.25;2.97;;;10.60;99.90;;;;;;5055297;28;20040;-77
2021/11/12 08:09:03;;;;;;;5.72;2.95;;;10.70;99.90;;;;;;5054946;28;20045;-77
2021/11/12 08:11:40;;;;;;;3.22;2.60;;;10.70;85.10;;;;;;5054733;28;20067;-77
2021/11/12 08:14:12;;;;;;;4.57;2.70;;;10.70;93.00;;;;;;5054703;28;20071;-78
2021/11/12 08:19:12;;;;;;;3.58;2.47;;;10.90;84.10;;;;;;5054502;28;20052;-78
2021/11/12 08:32:11;;;;;;;4.25;2.10;;;11.50;22.20;;;;;;5052955;28;20479;-77
2021/11/12 08:34:48;;;;;;;1.95;1.75;;;11.50;26.70;;;;;;5050433;28;20086;-77
2021/11/12 08:42:13;;;;;;;4.47;2.05;;;11.60;29.60;;;;;;5054313;28;20556;-77
2021/11/12 08:44:44;;;;;;;1.83;1.73;;;11.60;27.60;;;;;;5055661;28;20534;-77
2021/11/12 08:47:20;;;;;;;2.88;2.25;;;11.70;36.40;;;;;;5059902;28;20040;-78
2021/11/12 08:49:46;;;;;;;3.22;2.22;;;11.80;27.20;;;;;;5059987;28;20526;-77
2021/11/12 08:52:16;;;;;;;5.72;2.55;;;11.80;27.90;;;;;;5060082;28;20064;-77
2021/11/12 08:54:45;;;;;;;4.43;2.20;;;11.90;23.30;;;;;;5060590;28;20077;-77
2021/11/12 08:57:12;;;;;;;3.03;2.10;;;11.90;19.60;;;;;;5060330;28;20033;-77
2021/11/12 08:59:41;;;;;;;3.83;2.85;;;11.90;23.20;;;;;;5059328;28;20049;-77
2021/11/12 09:02:19;;;;;;;3.92;2.72;;;11.80;27.90;;;;;;5060086;28;20052;-76
2021/11/12 09:04:46;;;;;;;4.15;2.80;;;11.60;34.90;;;;;;5059776;28;20049;-75
2021/11/12 09:07:14;;;;;;;3.65;2.70;;;11.50;26.00;;;;;;5059793;28;20041;-75
2021/11/12 09:09:42;;;;;;;3.65;2.72;;;11.30;37.10;;;;;;5050391;28;20044;-75
2021/11/12 09:12:11;;;;;;;5.90;2.80;;;11.20;36.40;;;;;;5057739;28;20037;-74
2021/11/12 09:14:46;;;;;;;7.40;3.58;;;11.30;59.30;;;;;;5059026;28;20047;-75
2021/11/12 09:17:12;;;;;;;3.78;3.35;;;11.30;42.40;;;;;;5058787;28;20037;-75
2021/11/12 09:19:46;;;;;;;5.70;3.33;;;11.20;54.70;;;;;;5059970;28;20049;-76
2021/11/12 09:22:17;;;;;;;4.85;3.05;;;11.20;75.40;;;;;;5058879;28;20033;-75
2021/11/12 09:24:44;;;;;;;3.85;3.20;;;11.10;64.40;;;;;;5060354;28;20049;-75
2021/11/12 09:27:13;;;;;;;5.50;3.42;;;11.10;75.70;;;;;;5058864;28;20051;-75
2021/11/12 09:29:39;;;;;;;5.90;3.90;;;11.00;61.90;;;;;;5060484;28;20044;-75
2021/11/12 09:32:07;;;;;;;5.15;3.67;;;10.90;75.20;;;;;;5059909;28;20031;-75
2021/11/12 09:34:34;;;;;;;6.60;3.83;;;10.90;81.30;;;;;;5060414;28;20039;-75
2021/11/12 09:37:02;;;;;;;4.80;4.00;;;10.90;81.40;;;;;;5059880;28;20045;-77
2021/11/12 09:39:29;;;;;;;5.05;3.80;;;10.90;83.40;;;;;;5058199;28;20082;-76
2021/11/12 09:41:55;;;;;;;6.63;3.75;;;10.90;78.60;;;;;;5059669;28;20048;-75
2021/11/12 09:44:21;;;;;;;6.07;3.95;;;10.90;84.30;;;;;;5060226;28;20036;-75
2021/11/12 09:46:49;;;;;;;5.03;4.00;;;10.80;71.60;;;;;;5059647;28;20036;-76
2021/11/12 09:49:15;;;;;;;6.22;4.57;;;10.90;87.00;;;;;;5074211;28;20090;-75
2021/11/12 09:51:41;;;;;;;5.57;4.35;;;10.90;86.20;;;;;;5080125;28;20024;-76
2021/11/12 09:54:07;;;;;;;6.57;4.63;;;10.80;82.00;;;;;;5079683;28;20076;-76
2021/11/12 09:56:34;;;;;;;6.63;4.60;;;10.80;72.90;;;;;;5076624;28;20134;-76
2021/11/12 09:59:01;;;;;;;6.22;4.53;;;10.80;85.30;;;;;;5075103;28;20143;-76
2021/11/12 10:01:29;;;;;;;6.80;4.68;;;10.80;90.10;;;;;;5075212;28;20032;-76
2021/11/12 10:04:00;;;;;;;6.28;4.75;;;10.90;90.30;;;;;;5075320;28;20045;-76
2021/11/12 10:06:26;;;;;;;;;;;11.00;74.80;;;;;;5076766;28;20036;-76
2021/11/12 10:08:54;;;;;;;8.18;4.90;;;11.00;85.40;;;;;;5074819;28;20362;-76
2021/11/12 10:11:29;;;;;;;6.47;4.72;;;11.10;88.70;;;;;;5076480;28;20127;-75
2021/11/12 10:14:10;;;;;;;8.18;5.07;;;11.20;59.20;;;;;;5076729;28;20072;-76
2021/11/12 10:16:36;;;;;;;8.18;4.72;;;11.20;45.40;;;;;;5076936;28;20044;-76
2021/11/12 10:19:19;;;;;;;5.65;4.80;;;11.30;51.40;;;;;;5076905;28;20048;-76
2021/11/12 10:21:58;;;;;;;9.52;5.32;;;11.60;44.60;;;;;;5077190;28;20051;-76
2021/11/12 10:24:28;;;;;;;5.68;4.07;;;11.90;33.70;;;;;;5076909;28;20087;-76
2021/11/12 10:27:15;;;;;;;4.70;4.28;;;12.20;13.60;;;;;;5077109;28;20044;-76
2021/11/12 10:29:52;;;;;;;6.13;4.53;;;12.50;8.10;;;;;;5076748;28;20040;-76
2021/11/12 10:32:29;;;;;;;6.13;4.82;;;12.60;1.00;;;;;;5076721;28;20050;-76
2021/11/12 10:35:03;;;;;;;7.10;4.35;;;12.60;1.00;;;;;;5077222;28;20037;-76
2021/11/12 10:37:33;;;;;;;5.82;4.03;;;12.60;2.00;;;;;;5076757;28;20094;-77
2021/11/12 10:40:08;;;;;;;7.70;4.90;;;12.70;14.90;;;;;;5076207;28;20076;-76
2021/11/12 10:43:03;;;;;;;7.05;4.70;;;12.80;5.80;;;;;;5066103;28;20057;-75
2021/11/12 10:45:34;;;;;;;6.07;4.97;;;12.80;6.80;;;;;;5054469;28;20526;-76
2021/11/12 10:48:03;;;;;;;5.78;4.47;;;12.80;1.00;;;;;;5074866;28;20084;-76
2021/11/12 10:50:33;;;;;;;7.78;5.40;;;12.70;7.00;;;;;;5076538;28;20047;-76
2021/11/12 10:53:05;;;;;;;7.32;6.03;;;12.60;1.00;;;;;;5076168;28;20039;-76
2021/11/12 10:55:31;;;;;;;9.27;6.18;;;12.60;2.10;;;;;;5075823;28;20078;-76
2021/11/12 10:58:10;;;;;;;7.72;5.60;;;12.60;2.30;;;;;;5076077;28;20044;-75
2021/11/12 11:00:39;;;;;;;7.22;5.05;;;12.80;1.00;;;;;;5076066;28;20127;-76
2021/11/12 11:03:09;;;;;;;5.45;4.80;;;13.00;1.00;;;;;;5075881;28;20044;-76
2021/11/12 11:05:44;;;;;;;5.18;4.20;;;13.10;1.00;;;;;;5075945;28;20047;-76
2021/11/12 11:08:34;;;;;;;4.47;4.07;;;13.00;1.00;;;;;;5075463;28;20151;-76
2021/11/12 11:11:06;;;;;;;6.05;3.95;;;13.10;1.00;;;;;;5075413;28;20032;-76
2021/11/12 11:13:35;;;;;;;6.63;4.32;;;13.40;1.00;;;;;;5075531;28;20118;-75
2021/11/12 11:16:06;;;;;;;4.68;4.10;;;13.50;1.00;;;;;;5075047;28;20040;-77
2021/11/12 11:18:43;;;;;;;5.10;3.75;;;13.40;1.00;;;;;;5073816;28;20091;-76
2021/11/12 11:21:14;;;;;;;4.97;3.70;;;13.50;1.00;;;;;;5073784;28;20041;-77
2021/11/12 11:23:54;;;;;;;6.15;4.30;;;13.70;1.00;;;;;;5073638;28;20044;-77
2021/11/12 11:26:43;;;;;;;6.05;4.18;;;13.80;1.00;;;;;;5074742;28;20133;-76
2021/11/12 11:29:12;;;;;;;6.75;4.63;;;13.80;1.00;;;;;;5073870;28;20068;-77
2021/11/12 11:31:38;;;;;;;6.35;4.70;;;13.70;1.00;;;;;;5073952;28;20075;-76
2021/11/12 11:34:06;;;;;;;5.70;4.80;;;13.80;1.00;;;;;;5075294;28;20036;-76
2021/11/12 11:36:36;;;;;;;4.80;3.88;;;13.80;1.00;;;;;;5074920;28;20502;-77
2021/11/12 11:39:07;;;;;;;5.15;4.28;;;14.00;1.00;;;;;;5074826;28;20049;-77
2021/11/12 11:41:32;;;;;;;;;;;14.10;1.00;;;;;;5074702;28;20037;-76
2021/11/12 11:43:58;;;;;;;4.57;3.92;;;14.40;1.00;;;;;;5075407;28;19913;-75
2021/11/12 11:46:28;;;;;;;4.10;3.50;;;14.60;1.00;;;;;;5075544;28;20043;-76
2021/11/12 11:48:59;;;;;;;4.63;3.63;;;14.60;1.00;;;;;;5074943;28;20052;-75
2021/11/12 11:51:26;;;;;;;4.40;3.30;;;14.40;1.00;;;;;;5074391;28;20037;-76
2021/11/12 11:53:52;;;;;;;5.82;4.25;;;14.50;1.00;;;;;;5074681;28;20513;-76
2021/11/12 11:56:30;;;;;;;4.93;4.13;;;14.30;1.00;;;;;;5074866;28;20085;-75
2021/11/12 11:59:07;;;;;;;4.60;4.05;;;14.30;1.00;;;;;;5074735;28;20052;-76
2021/11/12 12:01:34;;;;;;;5.93;3.92;;;14.30;1.00;;;;;;5075135;28;20139;-76
2021/11/12 12:04:09;;;;;;;4.65;3.97;;;14.20;1.00;;;;;;5074710;28;20039;-76
2021/11/12 12:06:40;;;;;;;5.32;4.28;;;13.90;1.00;;;;;;5075002;28;20059;-76
2021/11/12 12:09:11;;;;;;;6.20;4.80;;;13.60;1.00;;;;;;5075048;28;20061;-76
2021/11/12 12:11:49;;;;;;;5.38;4.43;;;13.50;1.00;;;;;;5073922;28;20029;-76
2021/11/12 12:14:31;;;;;;;4.90;4.13;;;13.50;1.00;;;;;;5074024;28;20503;-76
2021/11/12 12:17:22;;;;;;;6.90;4.50;;;13.30;1.00;;;;;;5073753;28;20036;-76
2021/11/12 12:34:16;;;;;;;5.20;4.35;;;13.30;1.00;;;;;;5074456;28;20537;-75
2021/11/12 13:25:56;;;;;;;4.65;3.55;;;13.70;1.00;;;;;;5073663;28;20033;-75
2021/11/12 13:28:45;;;;;;;4.03;3.30;;;13.80;1.00;;;;;;5074111;28;20032;-76
2021/11/12 13:31:19;;;;;;;6.07;3.50;;;14.00;1.00;;;;;;5075264;28;20048;-75
2021/11/12 13:33:57;;;;;;;4.03;3.53;;;14.00;1.00;;;;;;5034231;28;20133;-75
2021/11/12 13:36:35;;;;;;;4.15;3.35;;;13.90;1.00;;;;;;4998221;28;20057;-75
2021/11/12 13:39:17;;;;;;;4.88;3.78;;;13.80;1.00;;;;;;4997616;28;20039;-75
2021/11/12 13:41:47;;;;;;;5.60;4.05;;;13.80;1.00;;;;;;4996036;28;20574;-76
2021/11/12 13:44:25;;;;;;;4.10;3.70;;;13.70;1.00;;;;;;4994275;28;20042;-76
2021/11/12 13:46:55;;;;;;;6.30;3.80;;;13.70;1.00;;;;;;4978348;28;20043;-75
2021/11/12 13:49:24;;;;;;;5.10;3.27;;;13.80;1.00;;;;;;4978436;28;20057;-75
2021/11/12 13:51:50;;;;;;;5.95;3.55;;;13.80;1.00;;;;;;4977550;28;20278;-75
2021/11/12 13:54:16;;;;;;;4.50;3.47;;;13.90;1.00;;;;;;4977559;28;20637;-75
2021/11/12 13:56:42;;;;;;;3.75;3.38;;;13.90;1.00;;;;;;4977561;28;20125;-74
2021/11/12 13:59:13;;;;;;;7.28;3.92;;;13.80;1.00;;;;;;4977495;28;20406;-77
2021/11/12 14:01:39;;;;;;;3.67;3.38;;;13.60;1.00;;;;;;4976186;28;20102;-74
2021/11/12 14:04:29;;;;;;;3.85;3.45;;;13.40;1.00;;;;;;4976207;28;20129;-76
2021/11/12 14:06:56;;;;;;;5.32;3.83;;;13.10;1.00;;;;;;4975895;28;20070;-76
2021/11/12 14:09:32;;;;;;;5.78;3.97;;;13.00;1.00;;;;;;4977244;28;20051;-76
2021/11/12 14:12:12;;;;;;;4.20;3.65;;;12.80;1.00;;;;;;4978080;28;20081;-77
2021/11/12 14:14:44;;;;;;;5.03;3.85;;;12.70;1.00;;;;;;4977588;28;20046;-77
2021/11/12 14:17:19;;;;;;;4.47;4.00;;;12.70;1.00;;;;;;4977324;28;20114;-76
2021/11/12 14:20:09;;;;;;;7.03;3.85;;;12.70;6.10;;;;;;4974681;28;20034;-76
2021/11/12 14:28:06;;;;;;;5.38;4.35;;;12.90;1.00;;;;;;4950578;28;20082;-76
2021/11/12 14:30:59;;;;;;;5.78;4.22;;;12.80;8.80;;;;;;4976786;28;20082;-76
2021/11/12 14:33:33;;;;;;;5.05;3.75;;;12.60;1.00;;;;;;4976231;28;20058;-76
2021/11/12 14:39:52;;;;;;;5.10;4.60;;;12.20;1.00;;;;;;4977170;28;20088;-75
2021/11/12 14:43:06;;;;;;;5.47;4.35;;;12.10;14.40;;;;;;4973249;28;20057;-75
2021/11/12 14:50:27;;;;;;;5.30;4.80;;;11.90;30.00;;;;;;5016107;28;20123;-76
2021/11/12 14:56:11;;;;;;;5.05;4.53;;;11.70;33.80;;;;;;5006763;28;20085;-76
2021/11/12 14:58:44;;;;;;;7.50;5.55;;;11.60;38.50;;;;;;5007824;28;20034;-76
2021/11/12 15:01:14;;;;;;;5.70;5.10;;;11.50;39.40;;;;;;5015099;28;20072;-76
2021/11/12 15:03:44;;;;;;;7.68;5.70;;;11.50;43.30;;;;;;5014093;28;20064;-76
2021/11/12 15:06:12;;;;;;;6.22;5.47;;;11.40;48.20;;;;;;5007199;28;20156;-76
2021/11/12 15:11:17;;;;;;;6.88;5.82;;;11.30;55.60;;;;;;4995841;28;20026;-76
2021/11/12 15:13:44;;;;;;;8.63;6.47;;;11.30;59.90;;;;;;5006177;28;20038;-76
2021/11/12 15:16:15;;;;;;;8.02;6.70;;;11.30;48.90;;;;;;5012511;28;20038;-76
2021/11/12 15:18:42;;;;;;;7.68;5.90;;;11.20;53.70;;;;;;5012587;28;20080;-76
2021/11/12 15:21:15;;;;;;;7.63;6.85;;;11.20;78.20;;;;;;4998341;28;20563;-76
2021/11/12 15:24:09;;;;;;;8.75;7.55;;;11.20;71.20;;;;;;4996518;28;20046;-76
2021/11/12 15:34:14;;;;;;;13.02;9.65;;;11.00;81.80;;;;;;5012404;28;20033;-76
2021/11/12 15:37:01;;;;;;;10.52;9.00;;;11.00;77.70;;;;;;5015516;28;20057;-77
2021/11/12 15:44:47;;;;;;;11.05;8.52;;;11.10;79.60;;;;;;5000609;28;20125;-75
2021/11/12 15:49:50;;;;;;;9.68;8.52;;;11.00;68.00;;;;;;5013724;28;20730;-76
2021/11/12 15:52:27;;;;;;;8.77;7.85;;;11.00;74.60;;;;;;5009913;28;20073;-77
2021/11/12 15:55:03;;;;;;;9.10;8.13;;;11.00;74.80;;;;;;4993015;28;20481;-76
2021/11/12 16:13:33;;;;;;;13.55;8.25;;;10.70;99.90;;;;;;5014752;28;20049;-75
2021/11/12 16:19:00;;;;;;;12.25;8.07;;;10.70;95.40;;;;;;5014951;28;20040;-75
2021/11/12 16:24:24;;;;;;;10.52;7.85;;;10.70;99.90;;;;;;5014260;28;20026;-73
2021/11/12 16:26:49;;;;;;;10.98;8.00;;;10.60;99.00;;;;;;5013880;28;20077;-73
2021/11/12 16:31:43;;;;;;;9.43;8.00;;;10.60;99.90;;;;;;5012076;28;20041;-73
2021/11/12 16:34:21;;;;;;;10.65;8.55;;;10.50;99.90;;;;;;5012601;28;20064;-73
2021/11/12 16:37:07;;;;;;;10.20;8.05;;;10.50;99.90;;;;;;5003320;28;20470;-75
2021/11/12 16:39:40;;;;;;;9.90;7.80;;;10.40;99.90;;;;;;4997320;28;20042;-74
2021/11/12 16:42:20;;;;;;;10.02;8.65;;;10.50;99.90;;;;;;5007552;28;20078;-74
2021/11/12 16:44:54;;;;;;;8.32;7.22;;;10.40;99.90;;;;;;5015303;28;20053;-74
2021/11/12 16:47:29;;;;;;;8.73;7.43;;;10.30;98.40;;;;;;5012706;28;20042;-74
2021/11/12 16:50:12;;;;;;;8.55;6.88;;;10.30;99.90;;;;;;4996284;28;20069;-73
2021/11/12 17:03:30;;;;;;;9.88;7.57;;;10.40;97.90;;;;;;4996686;28;20041;-74
2021/11/12 17:06:12;;;;;;;8.95;6.90;;;10.40;98.10;;;;;;5000777;28;20124;-74
2021/11/12 17:11:26;;;;;;;10.30;8.88;;;10.30;99.90;;;;;;5007082;28;20392;-78
2021/11/12 17:14:20;;;;;;;11.93;9.18;;;10.40;93.10;;;;;;5011415;28;20034;-76
2021/11/12 17:17:09;;;;;;;11.65;8.48;;;10.40;99.90;;;;;;5012981;28;20057;-74
2021/11/12 17:22:56;;;;;;;14.52;9.40;;;10.40;99.90;;;;;;5008648;28;20064;-74
2021/11/12 17:47:35;;;;;;;9.93;7.35;;;10.10;99.90;;;;;;5006734;28;20034;-74
2021/11/12 18:03:36;;;;;;;15.18;11.60;;;10.10;99.90;;;;;;5006254;28;20539;-75
2021/11/12 18:06:08;;;;;;;11.98;9.07;;;10.10;99.90;;;;;;5010202;28;20096;-75
2021/11/12 18:22:16;;;;;;;18.65;14.82;;;10.10;99.90;;;;;;5006794;28;20037;-74
2021/11/12 21:43:57;;;;;;;21.42;14.48;;;8.80;99.90;;;;;;5012134;28;20049;-73
2021/11/12 21:46:24;;;;;;;23.80;14.80;;;8.80;99.90;;;;;;5013391;28;20053;-72
2021/11/12 21:48:58;;;;;;;21.80;14.98;;;8.80;99.90;;;;;;5014171;28;20054;-73
2021/11/12 21:51:25;;;;;;;21.67;14.93;;;8.80;99.90;;;;;;5032725;28;20068;-73
2021/11/12 21:53:54;;;;;;;23.55;14.77;;;8.90;99.90;;;;;;5036699;28;20037;-73
2021/11/12 21:56:20;;;;;;;22.27;14.43;;;8.90;99.90;;;;;;5035308;28;20045;-73
2021/11/12 21:58:46;;;;;;;21.83;14.80;;;8.80;99.90;;;;;;5036346;28;20049;-73
2021/11/12 22:01:13;;;;;;;24.55;14.63;;;8.80;99.90;;;;;;5036847;28;20511;-73
2021/11/12 22:03:39;;;;;;;20.65;13.52;;;8.80;99.90;;;;;;5036841;28;20045;-73
2021/11/12 22:06:06;;;;;;;22.55;14.40;;;8.70;99.90;;;;;;5037268;28;20103;-73
2021/11/12 22:08:33;;;;;;;20.92;14.60;;;8.70;99.90;;;;;;5023664;28;20037;-73
2021/11/12 22:11:06;;;;;;;21.70;14.80;;;8.70;99.90;;;;;;5017163;28;20050;-73
2021/11/12 22:13:32;;;;;;;22.48;14.35;;;8.70;99.90;;;;;;5017491;28;20034;-73
2021/11/12 22:16:00;;;;;;;22.08;13.95;;;8.70;99.90;;;;;;5016881;28;20116;-73
2021/11/12 22:18:27;;;;;;;21.08;13.88;;;8.60;99.90;;;;;;5016515;28;20046;-72
2021/11/12 22:20:53;;;;;;;23.38;12.85;;;8.50;99.90;;;;;;5016880;28;20116;-72
2021/11/12 22:23:20;;;;;;;19.15;13.70;;;8.40;99.90;;;;;;5017336;28;20050;-73
2021/11/12 22:25:49;;;;;;;21.17;13.40;;;8.40;99.90;;;;;;5016859;28;20107;-73
2021/11/12 22:28:15;;;;;;;24.60;14.75;;;8.40;99.90;;;;;;5016931;28;20046;-73
2021/11/12 22:30:41;;;;;;;19.50;13.77;;;8.40;99.90;;;;;;5016700;28;20131;-73
2021/11/12 22:33:07;;;;;;;19.13;13.00;;;8.40;99.90;;;;;;5016837;28;20041;-73
2021/11/12 22:35:36;;;;;;;20.88;13.50;;;8.40;99.90;;;;;;5016900;28;20038;-72
2021/11/12 22:38:06;;;;;;;19.90;12.63;;;8.40;99.90;;;;;;5016677;28;20088;-73
2021/11/12 22:40:33;;;;;;;18.52;12.55;;;8.50;99.90;;;;;;5016747;28;20068;-73
2021/11/12 22:42:59;;;;;;;19.25;12.73;;;8.50;99.90;;;;;;5016804;28;20108;-73
2021/11/12 22:45:25;;;;;;;17.63;12.60;;;8.50;99.90;;;;;;5016768;28;20038;-73
2021/11/12 22:47:51;;;;;;;19.58;12.73;;;8.60;99.90;;;;;;5016156;28;20071;-73
2021/11/12 22:50:17;;;;;;;20.15;13.52;;;8.60;99.90;;;;;;5016734;28;20050;-73
2021/11/12 22:52:43;;;;;;;23.83;13.13;;;8.70;99.90;;;;;;5017139;28;20128;-74
2021/11/12 22:55:11;;;;;;;18.85;12.65;;;8.80;99.90;;;;;;5016695;28;20065;-74